createdAt,value
2018-09-15T00:00:50.995Z,2.90
2018-09-15T00:01:50.942Z,2.70
2018-09-15T00:02:50.960Z,3.00
2018-09-15T00:03:50.918Z,2.80
2018-09-15T00:04:50.904Z,3.20
2018-09-15T00:05:50.890Z,3.00
2018-09-15T00:06:50.887Z,2.80
2018-09-15T00:07:50.875Z,2.90
2018-09-15T00:08:50.880Z,2.90
2018-09-15T00:09:50.850Z,2.60
2018-09-15T00:10:50.838Z,3.10
2018-09-15T00:11:50.855Z,3.10
2018-09-15T00:12:50.824Z,2.90
2018-09-15T00:13:50.815Z,2.80
2018-09-15T00:14:50.821Z,2.90
2018-09-15T00:15:50.791Z,2.70
2018-09-15T00:16:50.777Z,2.50
2018-09-15T00:17:50.766Z,2.80
2018-09-15T00:18:50.754Z,2.60
2018-09-15T00:19:50.746Z,2.90
2018-09-15T00:20:50.749Z,2.50
2018-09-15T00:21:50.755Z,2.90
2018-09-15T00:22:50.712Z,2.90
2018-09-15T00:23:50.705Z,2.50
2018-09-15T00:24:50.696Z,2.90
2018-09-15T00:25:50.709Z,2.90
2018-09-15T00:26:50.678Z,2.70
2018-09-15T00:27:50.664Z,3.10
2018-09-15T00:28:50.654Z,3.10
2018-09-15T00:29:50.638Z,2.70
2018-09-15T00:30:50.627Z,2.80
2018-09-15T00:31:50.637Z,2.70
2018-09-15T00:32:50.612Z,2.70
2018-09-15T00:33:50.605Z,2.90
2018-09-15T00:34:50.610Z,3.20
2018-09-15T00:35:50.582Z,2.80
2018-09-15T00:36:50.567Z,2.90
2018-09-15T00:37:50.565Z,2.90
2018-09-15T00:38:50.566Z,2.90
2018-09-15T00:39:50.540Z,2.60
2018-09-15T00:40:50.525Z,2.90
2018-09-15T00:41:50.533Z,2.70
2018-09-15T00:42:50.520Z,2.70
2018-09-15T00:43:50.494Z,2.90
2018-09-15T00:44:50.508Z,3.10
2018-09-15T00:45:50.478Z,2.90
2018-09-15T00:46:50.467Z,3.00
2018-09-15T00:47:50.453Z,3.00
2018-09-15T00:48:50.455Z,3.10
2018-09-15T00:49:50.429Z,2.70
2018-09-15T00:50:50.417Z,3.00
2018-09-15T00:51:50.410Z,2.70
2018-09-15T00:52:50.401Z,3.20
2018-09-15T00:53:50.392Z,3.00
2018-09-15T00:54:50.390Z,2.80
2018-09-15T00:55:50.365Z,2.90
2018-09-15T00:56:50.362Z,3.90
2018-09-15T00:57:50.365Z,2.80
2018-09-15T00:58:50.341Z,3.20
2018-09-15T00:59:50.327Z,2.90
2018-09-15T01:00:50.323Z,2.60
2018-09-15T01:01:50.300Z,2.80
2018-09-15T01:02:50.290Z,2.70
2018-09-15T01:03:50.282Z,3.00
2018-09-15T01:04:50.274Z,3.10
2018-09-15T01:05:50.277Z,2.80
2018-09-15T01:06:50.255Z,2.70
2018-09-15T01:07:50.263Z,2.70
2018-09-15T01:08:50.229Z,2.80
2018-09-15T01:09:50.216Z,2.50
2018-09-15T01:10:50.225Z,2.80
2018-09-15T01:11:50.218Z,2.50
2018-09-15T01:12:50.188Z,3.00
2018-09-15T01:13:50.207Z,2.70
2018-09-15T01:14:50.168Z,2.60
2018-09-15T01:15:50.157Z,2.40
2018-09-15T01:16:50.148Z,2.60
2018-09-15T01:17:50.178Z,2.90
2018-09-15T01:18:50.131Z,2.50
2018-09-15T01:19:50.121Z,2.50
2018-09-15T01:20:50.117Z,2.40
2018-09-15T01:21:50.104Z,2.70
2018-09-15T01:22:50.095Z,2.40
2018-09-15T01:23:50.072Z,2.70
2018-09-15T01:24:50.065Z,2.40
2018-09-15T01:25:50.107Z,2.80
2018-09-15T01:26:50.038Z,2.50
2018-09-15T01:27:50.030Z,3.10
2018-09-15T01:28:50.036Z,2.40
2018-09-15T01:29:50.013Z,2.40
2018-09-15T01:30:50.021Z,2.50
2018-09-15T01:31:49.989Z,2.30
2018-09-15T01:32:49.979Z,2.30
2018-09-15T01:33:49.961Z,2.30
2018-09-15T01:34:49.970Z,2.20
2018-09-15T01:35:49.942Z,2.20
2018-09-15T01:36:49.936Z,2.30
2018-09-15T01:37:49.927Z,2.50
2018-09-15T01:38:49.918Z,2.30
2018-09-15T01:39:49.913Z,2.50
2018-09-15T01:40:49.889Z,2.70
2018-09-15T01:41:49.876Z,2.60
2018-09-15T01:42:49.889Z,2.50
2018-09-15T01:43:49.871Z,2.40
2018-09-15T01:44:49.850Z,2.30
2018-09-15T01:45:49.833Z,2.40
2018-09-15T01:46:49.827Z,2.50
2018-09-15T01:47:49.822Z,2.50
2018-09-15T01:48:49.818Z,2.40
2018-09-15T01:49:49.801Z,2.30
2018-09-15T01:50:49.788Z,2.50
2018-09-15T01:51:49.776Z,2.60
2018-09-15T01:52:49.769Z,2.70
2018-09-15T01:53:49.770Z,2.40
2018-09-15T01:54:49.737Z,2.40
2018-09-15T01:55:49.730Z,2.60
2018-09-15T01:56:49.721Z,2.50
2018-09-15T01:57:49.713Z,2.70
2018-09-15T01:58:49.694Z,2.20
2018-09-15T01:59:49.701Z,2.50
2018-09-15T02:00:49.678Z,2.40
2018-09-15T02:01:49.671Z,2.70
2018-09-15T02:02:49.659Z,2.50
2018-09-15T02:03:49.646Z,2.50
2018-09-15T02:04:49.632Z,2.90
2018-09-15T02:05:49.634Z,2.80
2018-09-15T02:06:49.613Z,2.30
2018-09-15T02:07:49.605Z,2.50
2018-09-15T02:08:49.594Z,2.50
2018-09-15T02:09:49.585Z,2.90
2018-09-15T02:10:49.574Z,2.50
2018-09-15T02:11:49.573Z,2.40
2018-09-15T02:12:49.546Z,2.30
2018-09-15T02:13:49.531Z,2.50
2018-09-15T02:14:49.529Z,2.20
2018-09-15T02:15:49.519Z,2.20
2018-09-15T02:16:49.537Z,2.50
2018-09-15T02:17:49.490Z,2.30
2018-09-15T02:18:49.477Z,2.30
2018-09-15T02:19:49.469Z,2.30
2018-09-15T02:20:49.463Z,2.30
2018-09-15T02:21:49.464Z,2.30
2018-09-15T02:22:49.481Z,2.10
2018-09-15T02:23:49.440Z,2.30
2018-09-15T02:24:49.414Z,2.20
2018-09-15T02:25:49.411Z,2.30
2018-09-15T02:26:49.944Z,2.00
2018-09-15T02:27:49.381Z,2.20
2018-09-15T02:28:49.393Z,2.20
2018-09-15T02:29:49.370Z,2.20
2018-09-15T02:30:49.364Z,2.10
2018-09-15T02:31:49.338Z,2.00
2018-09-15T02:32:49.331Z,2.00
2018-09-15T02:33:49.321Z,1.90
2018-09-15T02:34:49.310Z,1.90
2018-09-15T02:35:49.308Z,2.30
2018-09-15T02:36:49.352Z,1.90
2018-09-15T02:37:49.274Z,1.80
2018-09-15T02:38:49.291Z,2.20
2018-09-15T02:39:49.268Z,2.00
2018-09-15T02:40:49.257Z,2.00
2018-09-15T02:41:49.243Z,1.80
2018-09-15T02:42:49.220Z,1.90
2018-09-15T02:43:49.212Z,2.00
2018-09-15T02:44:49.193Z,1.80
2018-09-15T02:45:49.185Z,2.10
2018-09-15T02:46:49.190Z,2.20
2018-09-15T02:47:49.168Z,1.90
2018-09-15T02:48:49.169Z,2.00
2018-09-15T02:49:49.142Z,1.80
2018-09-15T02:50:49.129Z,1.80
2018-09-15T02:51:49.134Z,2.00
2018-09-15T02:52:49.124Z,2.10
2018-09-15T02:53:49.100Z,2.00
2018-09-15T02:54:49.268Z,2.10
2018-09-15T02:55:49.080Z,1.80
2018-09-15T02:56:49.062Z,2.20
2018-09-15T02:57:49.068Z,2.40
2018-09-15T02:58:49.054Z,2.00
2018-09-15T02:59:49.029Z,1.90
2018-09-15T03:00:49.026Z,2.40
2018-09-15T03:01:49.013Z,2.00
2018-09-15T03:02:49.021Z,2.00
2018-09-15T03:03:48.997Z,2.00
2018-09-15T03:04:48.985Z,2.20
2018-09-15T03:05:48.970Z,2.10
2018-09-15T03:06:48.968Z,2.10
2018-09-15T03:07:48.950Z,2.20
2018-09-15T03:08:48.943Z,1.80
2018-09-15T03:09:48.923Z,2.20
2018-09-15T03:10:49.009Z,2.10
2018-09-15T03:11:48.898Z,2.00
2018-09-15T03:12:48.895Z,2.30
2018-09-15T03:13:48.883Z,2.40
2018-09-15T03:14:48.871Z,2.30
2018-09-15T03:15:48.877Z,2.30
2018-09-15T03:16:48.858Z,2.20
2018-09-15T03:17:48.838Z,2.40
2018-09-15T03:18:48.828Z,2.30
2018-09-15T03:19:48.824Z,2.20
2018-09-15T03:20:48.806Z,2.40
2018-09-15T03:21:48.792Z,2.40
2018-09-15T03:22:48.798Z,2.30
2018-09-15T03:23:48.768Z,2.40
2018-09-15T03:24:48.765Z,2.30
2018-09-15T03:25:48.771Z,2.40
2018-09-15T03:26:52.968Z,2.40
2018-09-15T03:27:48.733Z,2.20
2018-09-15T03:28:48.726Z,2.50
2018-09-15T03:29:48.706Z,2.00
2018-09-15T03:30:48.696Z,2.40
2018-09-15T03:31:48.682Z,2.20
2018-09-15T03:32:48.679Z,2.20
2018-09-15T03:33:48.681Z,2.20
2018-09-15T03:34:48.654Z,2.20
2018-09-15T03:35:48.639Z,2.40
2018-09-15T03:36:48.636Z,2.10
2018-09-15T03:37:48.624Z,2.40
2018-09-15T03:38:48.619Z,2.20
2018-09-15T03:39:48.615Z,2.10
2018-09-15T03:40:48.585Z,2.10
2018-09-15T03:41:48.592Z,2.00
2018-09-15T03:42:48.565Z,2.10
2018-09-15T03:43:48.569Z,2.10
2018-09-15T03:44:48.567Z,2.00
2018-09-15T03:45:48.536Z,2.20
2018-09-15T03:46:48.528Z,2.00
2018-09-15T03:47:48.518Z,2.20
2018-09-15T03:48:48.539Z,1.90
2018-09-15T03:49:48.489Z,2.00
2018-09-15T03:50:48.482Z,1.80
2018-09-15T03:51:48.474Z,1.90
2018-09-15T03:52:48.454Z,1.80
2018-09-15T03:53:48.464Z,1.90
2018-09-15T03:54:48.436Z,1.80
2018-09-15T03:55:48.422Z,2.00
2018-09-15T03:56:48.420Z,1.70
2018-09-15T03:57:48.406Z,1.60
2018-09-15T03:58:48.397Z,1.70
2018-09-15T03:59:48.421Z,1.60
2018-09-15T04:00:48.368Z,2.00
2018-09-15T04:01:48.364Z,1.60
2018-09-15T04:02:48.349Z,1.60
2018-09-15T04:03:48.338Z,1.80
2018-09-15T04:04:48.348Z,1.70
2018-09-15T04:05:48.319Z,1.80
2018-09-15T04:06:48.311Z,1.80
2018-09-15T04:07:48.291Z,1.90
2018-09-15T04:08:48.289Z,1.80
2018-09-15T04:09:48.277Z,1.60
2018-09-15T04:10:48.280Z,1.60
2018-09-15T04:11:48.263Z,1.70
2018-09-15T04:12:48.237Z,1.80
2018-09-15T04:13:48.232Z,1.60
2018-09-15T04:14:48.218Z,1.80
2018-09-15T04:15:48.205Z,1.70
2018-09-15T04:16:48.217Z,1.70
2018-09-15T04:17:48.189Z,1.80
2018-09-15T04:18:48.179Z,1.50
2018-09-15T04:19:48.170Z,1.80
2018-09-15T04:20:48.151Z,1.60
2018-09-15T04:21:48.168Z,1.60
2018-09-15T04:22:48.147Z,1.70
2018-09-15T04:23:48.127Z,1.60
2018-09-15T04:24:48.108Z,1.50
2018-09-15T04:25:48.104Z,1.50
2018-09-15T04:26:48.106Z,1.60
2018-09-15T04:27:48.087Z,1.40
2018-09-15T04:28:48.073Z,1.70
2018-09-15T04:29:48.060Z,1.80
2018-09-15T04:30:48.048Z,1.70
2018-09-15T04:31:48.052Z,1.80
2018-09-15T04:32:48.037Z,1.70
2018-09-15T04:33:48.013Z,1.50
2018-09-15T04:34:48.012Z,1.70
2018-09-15T04:35:47.988Z,1.70
2018-09-15T04:36:47.986Z,1.70
2018-09-15T04:37:47.973Z,1.60
2018-09-15T04:38:47.996Z,1.40
2018-09-15T04:39:47.946Z,1.40
2018-09-15T04:40:47.962Z,1.40
2018-09-15T04:41:47.974Z,1.50
2018-09-15T04:42:47.918Z,1.50
2018-09-15T04:43:47.922Z,1.40
2018-09-15T04:44:47.891Z,1.60
2018-09-15T04:45:47.884Z,1.50
2018-09-15T04:46:47.877Z,1.60
2018-09-15T04:47:47.870Z,1.60
2018-09-15T04:48:47.867Z,1.70
2018-09-15T04:49:47.845Z,1.50
2018-09-15T04:50:47.832Z,1.40
2018-09-15T04:51:54.862Z,1.40
2018-09-15T04:52:47.953Z,1.60
2018-09-15T04:53:47.819Z,1.50
2018-09-15T04:54:47.784Z,1.40
2018-09-15T04:55:47.779Z,1.30
2018-09-15T04:56:47.763Z,1.50
2018-09-15T04:57:47.767Z,1.30
2018-09-15T04:58:47.851Z,1.20
2018-09-15T04:59:47.753Z,1.30
2018-09-15T05:00:47.724Z,1.40
2018-09-15T05:01:47.719Z,1.30
2018-09-15T05:02:47.695Z,1.50
2018-09-15T05:03:47.698Z,1.30
2018-09-15T05:04:47.678Z,1.30
2018-09-15T05:05:47.675Z,1.20
2018-09-15T05:06:47.674Z,1.20
2018-09-15T05:07:47.649Z,1.40
2018-09-15T05:08:47.633Z,1.10
2018-09-15T05:09:47.619Z,1.20
2018-09-15T05:10:47.627Z,1.50
2018-09-15T05:11:47.614Z,1.10
2018-09-15T05:12:47.649Z,1.30
2018-09-15T05:13:47.587Z,1.10
2018-09-15T05:14:47.565Z,1.50
2018-09-15T05:15:47.559Z,1.30
2018-09-15T05:16:47.562Z,1.10
2018-09-15T05:17:47.541Z,1.30
2018-09-15T05:18:47.529Z,1.20
2018-09-15T05:19:47.523Z,1.20
2018-09-15T05:20:47.532Z,1.20
2018-09-15T05:21:47.502Z,1.20
2018-09-15T05:22:47.496Z,1.20
2018-09-15T05:23:47.472Z,1.10
2018-09-15T05:24:47.468Z,1.20
2018-09-15T05:25:47.459Z,1.20
2018-09-15T05:26:47.439Z,1.40
2018-09-15T05:27:47.427Z,1.20
2018-09-15T05:28:47.435Z,1.00
2018-09-15T05:29:47.406Z,1.30
2018-09-15T05:30:47.400Z,1.10
2018-09-15T05:31:47.387Z,1.40
2018-09-15T05:32:47.377Z,1.40
2018-09-15T05:33:47.382Z,1.30
2018-09-15T05:34:47.364Z,1.20
2018-09-15T05:35:47.344Z,1.10
2018-09-15T05:36:47.330Z,1.40
2018-09-15T05:37:47.334Z,1.10
2018-09-15T05:38:47.316Z,1.20
2018-09-15T05:39:47.337Z,1.30
2018-09-15T05:40:47.290Z,1.50
2018-09-15T05:41:47.273Z,1.20
2018-09-15T05:42:47.270Z,1.30
2018-09-15T05:43:47.280Z,1.20
2018-09-15T05:44:47.246Z,1.10
2018-09-15T05:45:47.240Z,1.30
2018-09-15T05:46:47.219Z,1.40
2018-09-15T05:47:47.212Z,1.60
2018-09-15T05:48:47.200Z,1.20
2018-09-15T05:49:47.278Z,1.40
2018-09-15T05:50:47.184Z,1.20
2018-09-15T05:51:47.170Z,1.40
2018-09-15T05:52:47.159Z,1.30
2018-09-15T05:53:47.161Z,1.20
2018-09-15T05:54:47.149Z,1.40
2018-09-15T05:55:47.124Z,1.30
2018-09-15T05:56:47.131Z,1.50
2018-09-15T05:57:47.108Z,1.40
2018-09-15T05:58:47.089Z,1.50
2018-09-15T05:59:47.080Z,1.50
2018-09-15T06:00:47.097Z,1.10
2018-09-15T06:01:47.189Z,1.50
2018-09-15T06:02:47.055Z,1.40
2018-09-15T06:03:47.041Z,1.50
2018-09-15T06:04:47.029Z,1.40
2018-09-15T06:05:47.026Z,1.40
2018-09-15T06:06:47.083Z,1.30
2018-09-15T06:07:47.088Z,1.20
2018-09-15T06:08:46.984Z,1.60
2018-09-15T06:09:46.970Z,1.50
2018-09-15T06:10:46.969Z,1.40
2018-09-15T06:11:46.961Z,1.20
2018-09-15T06:12:46.960Z,1.50
2018-09-15T06:13:46.950Z,1.40
2018-09-15T06:14:46.924Z,1.10
2018-09-15T06:15:46.915Z,1.30
2018-09-15T06:16:46.901Z,1.30
2018-09-15T06:17:46.894Z,1.60
2018-09-15T06:18:46.914Z,1.50
2018-09-15T06:19:46.878Z,1.50
2018-09-15T06:20:46.866Z,1.80
2018-09-15T06:21:46.840Z,1.50
2018-09-15T06:22:46.841Z,1.30
2018-09-15T06:23:46.839Z,1.50
2018-09-15T06:24:46.815Z,1.70
2018-09-15T06:25:46.805Z,1.70
2018-09-15T06:26:46.790Z,1.40
2018-09-15T06:27:46.778Z,1.20
2018-09-15T06:28:46.770Z,1.60
2018-09-15T06:29:46.787Z,1.40
2018-09-15T06:30:46.753Z,1.50
2018-09-15T06:31:46.738Z,1.40
2018-09-15T06:32:46.725Z,1.50
2018-09-15T06:33:46.715Z,1.30
2018-09-15T06:34:46.708Z,1.80
2018-09-15T06:35:46.711Z,1.50
2018-09-15T06:36:46.696Z,1.60
2018-09-15T06:37:46.681Z,1.50
2018-09-15T06:38:46.658Z,1.40
2018-09-15T06:39:46.697Z,1.60
2018-09-15T06:40:46.648Z,1.50
2018-09-15T06:41:46.656Z,1.80
2018-09-15T06:42:46.634Z,1.70
2018-09-15T06:43:46.606Z,2.10
2018-09-15T06:44:46.594Z,2.00
2018-09-15T06:45:46.751Z,1.70
2018-09-15T06:46:46.583Z,1.80
2018-09-15T06:47:46.576Z,1.80
2018-09-15T06:48:46.554Z,2.00
2018-09-15T06:49:46.545Z,2.00
2018-09-15T06:50:46.526Z,1.90
2018-09-15T06:51:46.520Z,1.70
2018-09-15T06:52:46.531Z,1.80
2018-09-15T06:53:46.502Z,2.10
2018-09-15T06:54:46.492Z,1.90
2018-09-15T06:55:46.481Z,1.80
2018-09-15T06:56:46.480Z,1.50
2018-09-15T06:57:46.482Z,1.80
2018-09-15T06:58:46.461Z,1.80
2018-09-15T06:59:46.427Z,1.80
2018-09-15T07:00:46.437Z,1.90
2018-09-15T07:01:46.411Z,1.70
2018-09-15T07:02:46.401Z,1.80
2018-09-15T07:03:46.387Z,1.70
2018-09-15T07:04:46.385Z,1.90
2018-09-15T07:05:46.374Z,2.00
2018-09-15T07:06:46.369Z,1.80
2018-09-15T07:07:46.354Z,1.90
2018-09-15T07:08:46.342Z,1.90
2018-09-15T07:09:46.328Z,1.80
2018-09-15T07:10:46.312Z,1.70
2018-09-15T07:11:46.310Z,1.60
2018-09-15T07:12:46.288Z,1.70
2018-09-15T07:13:46.287Z,2.20
2018-09-15T07:14:46.275Z,1.90
2018-09-15T07:15:46.286Z,1.80
2018-09-15T07:16:46.261Z,1.80
2018-09-15T07:17:46.242Z,1.80
2018-09-15T07:18:46.231Z,1.50
2018-09-15T07:19:46.222Z,2.00
2018-09-15T07:20:46.213Z,1.80
2018-09-15T07:21:46.197Z,1.70
2018-09-15T07:22:46.203Z,1.60
2018-09-15T07:23:46.174Z,1.60
2018-09-15T07:24:46.159Z,1.60
2018-09-15T07:25:46.153Z,1.70
2018-09-15T07:26:46.142Z,1.70
2018-09-15T07:27:46.136Z,1.70
2018-09-15T07:28:46.157Z,1.60
2018-09-15T07:29:46.111Z,1.50
2018-09-15T07:30:46.098Z,1.80
2018-09-15T07:31:46.087Z,1.70
2018-09-15T07:32:46.081Z,1.60
2018-09-15T07:33:46.086Z,1.80
2018-09-15T07:34:46.078Z,1.60
2018-09-15T07:35:46.040Z,1.60
2018-09-15T07:36:46.030Z,1.50
2018-09-15T07:37:46.061Z,1.60
2018-09-15T07:38:46.034Z,1.70
2018-09-15T07:39:46.021Z,1.30
2018-09-15T07:40:45.994Z,1.60
2018-09-15T07:41:45.980Z,1.50
2018-09-15T07:42:45.968Z,1.60
2018-09-15T07:43:45.969Z,1.60
2018-09-15T07:44:45.966Z,1.60
2018-09-15T07:45:45.934Z,1.50
2018-09-15T07:46:45.926Z,1.40
2018-09-15T07:47:45.918Z,1.60
2018-09-15T07:48:45.899Z,1.60
2018-09-15T07:49:45.910Z,1.40
2018-09-15T07:50:45.886Z,1.70
2018-09-15T07:51:45.978Z,1.40
2018-09-15T07:52:45.864Z,1.40
2018-09-15T07:53:45.851Z,1.40
2018-09-15T07:54:45.836Z,1.60
2018-09-15T07:55:45.838Z,1.50
2018-09-15T07:56:45.816Z,1.70
2018-09-15T07:57:46.008Z,1.40
2018-09-15T07:58:45.797Z,1.50
2018-09-15T07:59:45.788Z,1.40
2018-09-15T08:00:45.784Z,1.40
2018-09-15T08:01:45.791Z,1.50
2018-09-15T08:02:45.751Z,1.60
2018-09-15T08:03:45.736Z,1.50
2018-09-15T08:04:45.733Z,1.30
2018-09-15T08:05:45.725Z,1.40
2018-09-15T08:06:45.706Z,1.40
2018-09-15T08:07:45.705Z,1.70
2018-09-15T08:08:45.682Z,1.30
2018-09-15T08:09:45.674Z,1.50
2018-09-15T08:10:45.666Z,1.40
2018-09-15T08:11:45.658Z,1.30
2018-09-15T08:12:45.661Z,1.40
2018-09-15T08:13:45.632Z,1.50
2018-09-15T08:14:45.645Z,1.40
2018-09-15T08:15:45.606Z,1.60
2018-09-15T08:16:45.595Z,1.50
2018-09-15T08:17:45.589Z,1.30
2018-09-15T08:18:45.595Z,1.10
2018-09-15T08:19:45.570Z,1.10
2018-09-15T08:20:45.627Z,1.50
2018-09-15T08:21:45.547Z,1.20
2018-09-15T08:22:45.535Z,1.20
2018-09-15T08:23:45.528Z,1.30
2018-09-15T08:24:45.547Z,1.20
2018-09-15T08:25:45.506Z,1.30
2018-09-15T08:26:45.491Z,1.40
2018-09-15T08:27:45.503Z,1.50
2018-09-15T08:28:45.470Z,1.30
2018-09-15T08:29:45.458Z,1.40
2018-09-15T08:30:45.466Z,1.20
2018-09-15T08:31:45.442Z,1.50
2018-09-15T08:32:45.431Z,1.40
2018-09-15T08:33:45.417Z,1.10
2018-09-15T08:34:45.409Z,1.20
2018-09-15T08:35:45.392Z,1.20
2018-09-15T08:36:45.402Z,1.60
2018-09-15T08:37:45.412Z,1.40
2018-09-15T08:38:45.377Z,1.30
2018-09-15T08:39:45.348Z,1.30
2018-09-15T08:40:45.343Z,1.40
2018-09-15T08:41:45.331Z,1.30
2018-09-15T08:42:45.327Z,1.20
2018-09-15T08:43:45.318Z,1.30
2018-09-15T08:44:45.322Z,1.30
2018-09-15T08:45:45.292Z,1.40
2018-09-15T08:46:45.276Z,1.20
2018-09-15T08:47:45.283Z,1.40
2018-09-15T08:48:45.252Z,1.60
2018-09-15T08:49:45.245Z,1.40
2018-09-15T08:50:45.253Z,1.40
2018-09-15T08:51:45.229Z,1.50
2018-09-15T08:52:45.210Z,1.30
2018-09-15T08:53:45.202Z,1.40
2018-09-15T08:54:45.194Z,1.40
2018-09-15T08:55:45.183Z,1.40
2018-09-15T08:56:45.190Z,1.20
2018-09-15T08:57:45.162Z,1.50
2018-09-15T08:58:45.157Z,1.40
2018-09-15T08:59:45.135Z,1.30
2018-09-15T09:00:45.143Z,1.20
2018-09-15T09:01:45.116Z,1.10
2018-09-15T09:02:45.119Z,1.60
2018-09-15T09:03:45.110Z,1.20
2018-09-15T09:04:45.090Z,1.30
2018-09-15T09:05:45.091Z,1.40
2018-09-15T09:06:45.062Z,1.40
2018-09-15T09:07:45.048Z,1.40
2018-09-15T09:08:45.047Z,1.40
2018-09-15T09:09:45.035Z,1.50
2018-09-15T09:10:45.042Z,1.30
2018-09-15T09:11:45.019Z,1.20
2018-09-15T09:12:45.006Z,1.20
2018-09-15T09:13:44.988Z,1.40
2018-09-15T09:14:44.979Z,1.40
2018-09-15T09:15:44.971Z,1.40
2018-09-15T09:16:44.959Z,1.20
2018-09-15T09:17:44.962Z,1.40
2018-09-15T09:18:44.945Z,1.30
2018-09-15T09:19:44.945Z,1.40
2018-09-15T09:20:44.908Z,1.40
2018-09-15T09:21:44.903Z,1.40
2018-09-15T09:22:44.893Z,1.40
2018-09-15T09:23:44.914Z,1.40
2018-09-15T09:24:44.865Z,1.20
2018-09-15T09:25:44.880Z,1.20
2018-09-15T09:26:44.893Z,1.20
2018-09-15T09:27:44.842Z,1.40
2018-09-15T09:28:44.846Z,1.40
2018-09-15T09:29:44.817Z,1.10
2018-09-15T09:30:44.804Z,1.30
2018-09-15T09:31:44.790Z,1.30
2018-09-15T09:32:44.782Z,1.70
2018-09-15T09:33:44.795Z,1.30
2018-09-15T09:34:44.781Z,1.40
2018-09-15T09:35:44.756Z,2.00
2018-09-15T09:36:44.748Z,1.40
2018-09-15T09:37:44.731Z,1.60
2018-09-15T09:38:44.718Z,1.40
2018-09-15T09:39:44.705Z,1.40
2018-09-15T09:40:44.717Z,1.50
2018-09-15T09:41:44.688Z,1.60
2018-09-15T09:42:44.679Z,1.50
2018-09-15T09:43:44.665Z,1.40
2018-09-15T09:44:44.658Z,1.40
2018-09-15T09:45:44.646Z,1.40
2018-09-15T09:46:44.667Z,1.40
2018-09-15T09:47:44.630Z,1.50
2018-09-15T09:48:44.617Z,1.40
2018-09-15T09:49:44.603Z,1.60
2018-09-15T09:50:44.591Z,1.40
2018-09-15T09:51:44.575Z,1.40
2018-09-15T09:52:44.578Z,1.30
2018-09-15T09:53:44.556Z,1.30
2018-09-15T09:54:44.548Z,1.20
2018-09-15T09:55:44.539Z,1.30
2018-09-15T09:56:44.542Z,1.40
2018-09-15T09:57:44.530Z,1.50
2018-09-15T09:58:44.504Z,1.40
2018-09-15T09:59:44.498Z,1.20
2018-09-15T10:00:44.487Z,1.50
2018-09-15T10:01:44.473Z,1.10
2018-09-15T10:02:44.460Z,1.40
2018-09-15T10:03:44.460Z,1.50
2018-09-15T10:04:44.436Z,1.80
2018-09-15T10:05:44.428Z,1.40
2018-09-15T10:06:44.418Z,1.20
2018-09-15T10:07:44.410Z,1.40
2018-09-15T10:08:44.411Z,1.30
2018-09-15T10:09:44.405Z,1.60
2018-09-15T10:10:44.373Z,1.40
2018-09-15T10:11:44.361Z,1.50
2018-09-15T10:12:44.357Z,1.30
2018-09-15T10:13:44.360Z,1.30
2018-09-15T10:14:44.331Z,1.60
2018-09-15T10:15:44.347Z,1.40
2018-09-15T10:16:44.313Z,1.50
2018-09-15T10:17:44.302Z,1.30
2018-09-15T10:18:44.290Z,1.50
2018-09-15T10:19:44.305Z,1.50
2018-09-15T10:20:44.271Z,1.30
2018-09-15T10:21:44.329Z,1.40
2018-09-15T10:22:44.245Z,1.40
2018-09-15T10:23:44.231Z,1.20
2018-09-15T10:24:44.220Z,1.40
2018-09-15T10:25:44.215Z,1.30
2018-09-15T10:26:44.205Z,1.50
2018-09-15T10:27:44.210Z,1.20
2018-09-15T10:28:44.177Z,1.40
2018-09-15T10:29:44.177Z,1.10
2018-09-15T10:30:44.163Z,1.20
2018-09-15T10:31:44.167Z,1.30
2018-09-15T10:32:44.162Z,1.30
2018-09-15T10:33:44.130Z,1.40
2018-09-15T10:34:44.116Z,1.30
2018-09-15T10:35:44.118Z,1.40
2018-09-15T10:36:44.095Z,1.20
2018-09-15T10:37:44.084Z,1.20
2018-09-15T10:38:44.076Z,1.20
2018-09-15T10:39:44.088Z,1.30
2018-09-15T10:40:44.058Z,1.20
2018-09-15T10:41:44.044Z,1.20
2018-09-15T10:42:44.059Z,1.10
2018-09-15T10:43:44.020Z,1.00
2018-09-15T10:44:44.039Z,1.10
2018-09-15T10:45:44.024Z,1.10
2018-09-15T10:46:44.034Z,1.20
2018-09-15T10:47:43.974Z,1.30
2018-09-15T10:48:43.970Z,1.10
2018-09-15T10:49:43.967Z,1.20
2018-09-15T10:50:43.949Z,1.20
2018-09-15T10:51:43.943Z,1.20
2018-09-15T10:52:43.929Z,1.30
2018-09-15T10:53:43.927Z,1.00
2018-09-15T10:54:43.903Z,1.10
2018-09-15T10:55:43.907Z,1.20
2018-09-15T10:56:43.894Z,1.10
2018-09-15T10:57:43.873Z,1.30
2018-09-15T10:58:43.863Z,1.40
2018-09-15T10:59:43.856Z,1.10
2018-09-15T11:00:43.897Z,1.30
2018-09-15T11:01:43.827Z,1.30
2018-09-15T11:02:43.837Z,1.00
2018-09-15T11:03:43.811Z,1.20
2018-09-15T11:04:43.812Z,1.20
2018-09-15T11:05:43.834Z,1.00
2018-09-15T11:06:43.773Z,1.00
2018-09-15T11:07:43.759Z,1.20
2018-09-15T11:08:43.758Z,1.00
2018-09-15T11:09:43.759Z,1.20
2018-09-15T11:10:43.735Z,0.90
2018-09-15T11:11:43.719Z,1.10
2018-09-15T11:12:43.707Z,1.30
2018-09-15T11:13:43.769Z,1.10
2018-09-15T11:14:43.690Z,1.10
2018-09-15T11:15:43.693Z,1.30
2018-09-15T11:16:43.663Z,1.40
2018-09-15T11:17:43.655Z,1.20
2018-09-15T11:18:43.680Z,1.40
2018-09-15T11:19:43.642Z,1.30
2018-09-15T11:20:43.630Z,1.40
2018-09-15T11:21:43.615Z,1.10
2018-09-15T11:22:43.665Z,1.30
2018-09-15T11:23:43.595Z,1.20
2018-09-15T11:24:43.594Z,1.10
2018-09-15T11:25:43.572Z,1.20
2018-09-15T11:26:43.563Z,1.10
2018-09-15T11:27:43.554Z,1.10
2018-09-15T11:28:43.635Z,1.10
2018-09-15T11:29:43.530Z,1.00
2018-09-15T11:30:43.529Z,0.90
2018-09-15T11:31:43.518Z,0.90
2018-09-15T11:32:43.504Z,1.00
2018-09-15T11:33:43.486Z,1.00
2018-09-15T11:34:43.473Z,1.00
2018-09-15T11:35:43.459Z,1.40
2018-09-15T11:36:43.468Z,1.60
2018-09-15T11:37:43.444Z,1.20
2018-09-15T11:38:43.432Z,1.30
2018-09-15T11:39:43.426Z,1.40
2018-09-15T11:40:43.415Z,1.50
2018-09-15T11:41:43.426Z,1.70
2018-09-15T11:42:43.398Z,1.50
2018-09-15T11:43:43.401Z,1.50
2018-09-15T11:44:43.363Z,1.40
2018-09-15T11:45:43.369Z,1.50
2018-09-15T11:46:43.347Z,1.30
2018-09-15T11:47:43.356Z,1.30
2018-09-15T11:48:43.331Z,1.20
2018-09-15T11:49:43.345Z,1.20
2018-09-15T11:50:43.306Z,1.30
2018-09-15T11:51:43.319Z,1.20
2018-09-15T11:52:43.286Z,1.30
2018-09-15T11:53:43.306Z,1.20
2018-09-15T11:54:43.264Z,1.40
2018-09-15T11:55:43.246Z,1.10
2018-09-15T11:56:43.235Z,1.40
2018-09-15T11:57:43.226Z,1.10
2018-09-15T11:58:43.240Z,1.10
2018-09-15T11:59:43.211Z,1.30
2018-09-15T12:00:43.200Z,1.20
2018-09-15T12:01:43.187Z,1.20
2018-09-15T12:02:43.171Z,1.20
2018-09-15T12:03:43.158Z,1.20
2018-09-15T12:04:43.190Z,1.10
2018-09-15T12:05:43.157Z,1.30
2018-09-15T12:06:43.128Z,1.10
2018-09-15T12:07:43.154Z,1.10
2018-09-15T12:08:43.105Z,1.10
2018-09-15T12:09:43.097Z,0.90
2018-09-15T12:10:43.089Z,1.30
2018-09-15T12:11:43.091Z,1.10
2018-09-15T12:12:43.088Z,1.20
2018-09-15T12:13:43.058Z,1.10
2018-09-15T12:14:43.045Z,1.20
2018-09-15T12:15:43.029Z,1.00
2018-09-15T12:16:43.034Z,0.90
2018-09-15T12:17:43.011Z,1.40
2018-09-15T12:18:43.004Z,1.20
2018-09-15T12:19:42.996Z,1.30
2018-09-15T12:20:42.976Z,0.90
2018-09-15T12:21:43.076Z,1.20
2018-09-15T12:22:42.988Z,1.20
2018-09-15T12:23:42.956Z,1.10
2018-09-15T12:24:42.942Z,1.30
2018-09-15T12:25:43.767Z,1.30
2018-09-15T12:26:44.060Z,1.20
2018-09-15T12:27:45.070Z,1.30
2018-09-15T12:28:43.029Z,1.00
2018-09-15T12:29:43.129Z,1.30
2018-09-15T12:30:43.775Z,1.00
2018-09-15T12:31:44.867Z,1.00
2018-09-15T12:32:43.352Z,1.00
2018-09-15T12:33:44.287Z,1.10
2018-09-15T12:34:43.814Z,0.90
2018-09-15T12:35:43.851Z,1.00
2018-09-15T12:36:43.793Z,0.80
2018-09-15T12:37:44.825Z,1.30
2018-09-15T12:38:43.793Z,1.10
2018-09-15T12:39:43.166Z,1.10
2018-09-15T12:40:42.970Z,0.90
2018-09-15T12:41:43.823Z,1.20
2018-09-15T12:42:43.079Z,1.00
2018-09-15T12:43:43.073Z,1.10
2018-09-15T12:44:43.847Z,1.40
2018-09-15T12:45:43.935Z,1.00
2018-09-15T12:46:42.932Z,1.30
2018-09-15T12:47:43.852Z,0.90
2018-09-15T12:48:44.296Z,1.20
2018-09-15T12:49:43.898Z,1.30
2018-09-15T12:50:43.910Z,1.20
2018-09-15T12:51:42.912Z,1.00
2018-09-15T12:52:43.763Z,1.10
2018-09-15T12:53:44.769Z,1.10
2018-09-15T12:54:43.877Z,1.00
2018-09-15T12:55:43.356Z,1.00
2018-09-15T12:56:42.704Z,1.00
2018-09-15T12:57:44.362Z,1.20
2018-09-15T12:58:44.265Z,1.20
2018-09-15T12:59:44.352Z,1.00
2018-09-15T13:00:42.906Z,1.20
2018-09-15T13:01:43.345Z,1.20
2018-09-15T13:02:44.277Z,1.20
2018-09-15T13:03:44.584Z,1.30
2018-09-15T13:04:44.773Z,1.00
2018-09-15T13:05:44.809Z,1.20
2018-09-15T13:06:43.496Z,1.00
2018-09-15T13:07:43.402Z,1.00
2018-09-15T13:08:43.313Z,1.00
2018-09-15T13:09:43.267Z,0.90
2018-09-15T13:10:43.764Z,0.90
2018-09-15T13:11:43.371Z,0.90
2018-09-15T13:12:44.364Z,1.20
2018-09-15T13:13:42.859Z,1.10
2018-09-15T13:14:43.389Z,1.20
2018-09-15T13:15:43.294Z,1.10
2018-09-15T13:16:42.595Z,1.00
2018-09-15T13:17:43.268Z,1.20
2018-09-15T13:18:42.596Z,1.00